createdAt,value
2019-04-06T00:01:04.547Z,22.73
2019-04-06T00:03:32.710Z,22.71
2019-04-06T00:06:00.951Z,22.71
2019-04-06T00:08:29.105Z,22.70
2019-04-06T00:10:57.292Z,22.69
2019-04-06T00:13:25.434Z,22.70
2019-04-06T00:15:56.497Z,22.70
2019-04-06T00:18:24.630Z,22.69
2019-04-06T00:20:52.764Z,22.68
2019-04-06T00:23:21.005Z,22.69
2019-04-06T00:25:49.157Z,22.69
2019-04-06T00:28:17.303Z,22.70
2019-04-06T00:30:59.560Z,22.67
2019-04-06T00:33:27.978Z,22.67
2019-04-06T00:35:56.140Z,22.67
2019-04-06T00:38:24.331Z,22.68
2019-04-06T00:40:52.505Z,22.65
2019-04-06T00:43:20.705Z,22.66
2019-04-06T00:45:48.946Z,22.64
2019-04-06T00:48:17.076Z,22.65
2019-04-06T00:50:45.345Z,22.64
2019-04-06T00:53:13.562Z,22.62
2019-04-06T00:55:41.713Z,22.65
2019-04-06T00:58:09.876Z,22.64
2019-04-06T01:00:38.111Z,22.64
2019-04-06T01:03:06.259Z,22.63
2019-04-06T01:05:34.450Z,22.64
2019-04-06T01:08:02.582Z,22.64
2019-04-06T01:10:30.748Z,22.64
2019-04-06T01:12:58.926Z,22.64
2019-04-06T01:15:27.093Z,22.63
2019-04-06T01:17:55.284Z,22.62
2019-04-06T01:20:23.455Z,22.61
2019-04-06T01:22:51.671Z,22.64
2019-04-06T01:25:19.885Z,22.61
2019-04-06T01:27:48.148Z,22.63
2019-04-06T01:30:16.252Z,22.61
2019-04-06T01:32:44.397Z,22.60
2019-04-06T01:35:12.577Z,22.60
2019-04-06T01:37:40.715Z,22.59
2019-04-06T01:40:08.925Z,22.60
2019-04-06T01:45:24.264Z,22.59
2019-04-06T01:47:52.411Z,22.58
2019-04-06T01:50:20.629Z,22.57
2019-04-06T01:52:48.807Z,22.58
2019-04-06T01:55:16.966Z,22.56
2019-04-06T01:57:45.200Z,22.56
2019-04-06T02:03:02.469Z,22.19
2019-04-06T02:05:30.620Z,22.53
2019-04-06T02:08:17.689Z,22.54
2019-04-06T02:13:19.569Z,22.53
2019-04-06T02:15:47.792Z,22.53
2019-04-06T02:18:15.968Z,22.52
2019-04-06T02:20:44.055Z,22.52
2019-04-06T02:23:12.209Z,22.51
2019-04-06T02:25:40.363Z,22.50
2019-04-06T02:28:08.517Z,22.50
2019-04-06T02:33:33.525Z,22.48
2019-04-06T02:36:10.450Z,22.48
2019-04-06T02:38:57.562Z,22.48
2019-04-06T02:41:44.609Z,22.49
2019-04-06T02:44:12.881Z,22.48
2019-04-06T02:46:41.038Z,22.47
2019-04-06T02:49:09.169Z,22.48
2019-04-06T02:51:37.392Z,22.46
2019-04-06T02:54:05.596Z,22.47
2019-04-06T02:56:46.004Z,22.45
2019-04-06T02:59:03.621Z,22.45
2019-04-06T03:01:31.828Z,22.44
2019-04-06T03:03:59.970Z,22.45
2019-04-06T03:06:47.061Z,22.45
2019-04-06T03:09:15.238Z,22.45
2019-04-06T03:11:43.367Z,22.45
2019-04-06T03:14:11.618Z,22.43
2019-04-06T03:16:39.789Z,22.42
2019-04-06T03:19:07.909Z,22.43
2019-04-06T03:21:36.078Z,22.42
2019-04-06T03:24:04.317Z,22.43
2019-04-06T03:26:32.521Z,22.42
2019-04-06T03:29:00.701Z,22.41
2019-04-06T03:31:48.012Z,22.42
2019-04-06T03:34:20.686Z,22.39
2019-04-06T03:36:46.160Z,22.41
2019-04-06T03:39:14.368Z,22.40
2019-04-06T03:44:15.917Z,22.41
2019-04-06T03:46:44.153Z,22.39
2019-04-06T03:49:12.314Z,22.40
2019-04-06T03:51:40.625Z,22.39
2019-04-06T03:54:10.273Z,22.39
2019-04-06T03:56:38.500Z,22.40
2019-04-06T03:59:06.674Z,22.38
2019-04-06T04:01:34.826Z,22.39
2019-04-06T04:04:03.025Z,22.38
2019-04-06T04:06:31.348Z,22.39
2019-04-06T04:08:59.510Z,22.38
2019-04-06T04:11:27.855Z,22.37
2019-04-06T04:13:56.057Z,22.37
2019-04-06T04:16:24.431Z,22.37
2019-04-06T04:18:54.050Z,22.36
2019-04-06T04:21:22.248Z,22.37
2019-04-06T04:23:50.470Z,22.37
2019-04-06T04:26:18.676Z,22.37
2019-04-06T04:28:46.842Z,22.36
2019-04-06T04:31:15.061Z,22.36
2019-04-06T04:33:43.195Z,22.36
2019-04-06T04:36:11.373Z,22.36
2019-04-06T04:38:39.572Z,22.34
2019-04-06T04:41:07.765Z,22.34
2019-04-06T04:43:35.940Z,22.34
2019-04-06T04:46:04.299Z,22.34
2019-04-06T04:48:33.974Z,22.34
2019-04-06T04:51:02.208Z,22.35
2019-04-06T04:53:31.926Z,22.36
2019-04-06T04:56:00.100Z,22.35
2019-04-06T04:58:28.293Z,22.34
2019-04-06T05:00:56.576Z,22.35
2019-04-06T05:03:24.709Z,22.36
2019-04-06T05:05:52.844Z,22.35
2019-04-06T05:08:21.101Z,22.36
2019-04-06T05:10:49.261Z,22.35
2019-04-06T05:13:17.477Z,22.33
2019-04-06T05:16:04.757Z,22.33
2019-04-06T05:18:32.965Z,22.32
2019-04-06T05:21:01.184Z,22.33
2019-04-06T05:23:29.343Z,22.32
2019-04-06T05:26:16.695Z,22.31
2019-04-06T05:28:44.803Z,22.33
2019-04-06T05:34:07.313Z,22.34
2019-04-06T05:36:35.517Z,22.32
2019-04-06T05:41:38.039Z,22.33
2019-04-06T05:44:06.671Z,22.34
2019-04-06T05:46:35.257Z,22.36
2019-04-06T05:49:03.380Z,22.34
2019-04-06T05:51:32.063Z,22.35
2019-04-06T05:54:00.300Z,22.34
2019-04-06T05:56:28.556Z,22.35
2019-04-06T05:58:56.702Z,22.37
2019-04-06T06:01:24.873Z,22.37
2019-04-06T06:03:53.489Z,22.36
2019-04-06T06:06:40.743Z,22.35
2019-04-06T06:09:08.917Z,22.34
2019-04-06T06:14:44.726Z,22.35
2019-04-06T06:17:14.354Z,22.36
2019-04-06T06:19:42.689Z,22.34
2019-04-06T06:22:10.848Z,22.34
2019-04-06T06:24:57.977Z,22.34
2019-04-06T06:27:26.138Z,22.34
2019-04-06T06:29:54.327Z,22.33
2019-04-06T06:32:22.740Z,22.33
2019-04-06T06:37:38.202Z,22.34
2019-04-06T06:40:06.368Z,22.33
2019-04-06T06:42:34.536Z,22.33
2019-04-06T06:45:02.676Z,22.34
2019-04-06T06:47:30.961Z,22.34
2019-04-06T06:49:59.132Z,22.33
2019-04-06T06:52:27.357Z,22.32
2019-04-06T06:54:55.535Z,22.33
2019-04-06T06:57:23.848Z,22.32
2019-04-06T06:59:52.157Z,22.32
2019-04-06T07:02:21.789Z,22.33
2019-04-06T07:04:50.032Z,22.32
2019-04-06T07:07:18.161Z,22.30
2019-04-06T07:09:46.303Z,22.32
2019-04-06T07:12:14.445Z,22.32
2019-04-06T07:14:42.615Z,22.33
2019-04-06T07:17:10.833Z,22.33
2019-04-06T07:19:39.029Z,22.33
2019-04-06T07:22:07.222Z,22.34
2019-04-06T07:24:35.375Z,22.33
2019-04-06T07:27:03.513Z,22.35
2019-04-06T07:29:31.672Z,22.35
2019-04-06T07:31:59.837Z,22.35
2019-04-06T07:34:28.156Z,22.36
2019-04-06T07:40:12.153Z,22.36
2019-04-06T07:42:40.336Z,22.37
2019-04-06T07:45:08.719Z,22.39
2019-04-06T07:47:55.862Z,22.39
2019-04-06T07:50:24.433Z,22.40
2019-04-06T07:52:53.946Z,22.39
2019-04-06T07:55:22.084Z,22.39
2019-04-06T07:57:50.271Z,22.39
2019-04-06T08:00:18.443Z,22.39
2019-04-06T08:02:46.632Z,22.39
2019-04-06T08:05:14.771Z,22.41
2019-04-06T08:07:42.955Z,22.42
2019-04-06T08:10:11.178Z,22.40
2019-04-06T08:12:39.373Z,22.41
2019-04-06T08:15:28.028Z,22.42
2019-04-06T08:17:56.248Z,22.47
2019-04-06T08:20:24.476Z,22.56
2019-04-06T08:22:52.673Z,22.59
2019-04-06T08:25:20.860Z,22.63
2019-04-06T08:27:49.017Z,22.71
2019-04-06T08:30:17.157Z,22.84
2019-04-06T08:32:45.417Z,22.80
2019-04-06T08:35:23.963Z,22.80
2019-04-06T08:37:43.303Z,22.80
2019-04-06T08:40:30.532Z,22.79
2019-04-06T08:45:59.348Z,22.80
2019-04-06T08:48:28.077Z,22.84
2019-04-06T08:50:57.582Z,22.81
2019-04-06T08:53:25.857Z,23.04
2019-04-06T08:55:53.989Z,22.92
2019-04-06T08:58:22.327Z,22.91
2019-04-06T09:00:51.928Z,23.01
2019-04-06T09:03:39.205Z,23.24
2019-04-06T09:06:07.332Z,23.22
2019-04-06T09:08:54.415Z,23.17
2019-04-06T09:11:22.539Z,23.23
2019-04-06T09:13:50.760Z,23.16
2019-04-06T09:16:18.937Z,23.36
2019-04-06T09:18:49.130Z,23.38
2019-04-06T09:21:16.864Z,23.31
2019-04-06T09:23:45.030Z,23.21
2019-04-06T09:26:13.147Z,23.36
2019-04-06T09:28:41.289Z,23.27
2019-04-06T09:31:09.673Z,23.22
2019-04-06T09:33:39.303Z,23.03
2019-04-06T09:36:26.603Z,22.99
2019-04-06T09:38:54.813Z,22.99
2019-04-06T09:41:22.973Z,23.00
2019-04-06T09:43:51.277Z,23.05
2019-04-06T09:46:38.310Z,23.06
2019-04-06T09:49:25.382Z,23.00
2019-04-06T09:52:12.432Z,22.97
2019-04-06T09:54:59.736Z,23.02
2019-04-06T09:57:46.952Z,23.11
2019-04-06T10:00:34.219Z,22.95
2019-04-06T10:03:21.298Z,23.02
2019-04-06T10:06:08.370Z,23.02
2019-04-06T10:08:55.420Z,22.93
2019-04-06T10:11:42.507Z,22.88
2019-04-06T10:14:29.579Z,23.00
2019-04-06T10:17:16.670Z,23.00
2019-04-06T10:20:03.718Z,22.89
2019-04-06T10:22:50.803Z,22.94
2019-04-06T10:25:37.897Z,23.03
2019-04-06T10:28:25.075Z,22.91
2019-04-06T10:31:12.109Z,22.89
2019-04-06T10:33:59.190Z,22.91
2019-04-06T10:36:46.281Z,22.90
2019-04-06T10:39:33.326Z,22.87
2019-04-06T10:42:20.436Z,22.87
2019-04-06T10:45:07.502Z,22.93
2019-04-06T10:50:35.336Z,23.02
2019-04-06T10:56:06.865Z,22.97
2019-04-06T11:01:34.673Z,23.03
2019-04-06T11:04:16.818Z,22.90
2019-04-06T11:07:03.891Z,22.75
2019-04-06T11:09:50.962Z,22.92
2019-04-06T11:12:38.005Z,23.05
2019-04-06T11:15:25.198Z,22.89
2019-04-06T11:18:12.241Z,23.00
2019-04-06T11:20:59.316Z,23.00
2019-04-06T11:23:42.142Z,22.93
2019-04-06T11:26:18.807Z,23.03
2019-04-06T11:29:05.922Z,23.09
2019-04-06T11:31:53.343Z,23.14
2019-04-06T11:34:31.976Z,23.17
2019-04-06T11:37:19.023Z,23.07
2019-04-06T11:40:06.197Z,22.93
2019-04-06T11:42:44.115Z,22.94
2019-04-06T11:45:31.394Z,23.13
2019-04-06T11:48:18.859Z,23.16
2019-04-06T11:51:06.046Z,23.12
2019-04-06T11:53:53.366Z,23.04
2019-04-06T11:56:40.682Z,23.04
2019-04-06T11:59:28.251Z,23.09
2019-04-06T12:02:15.284Z,23.07
2019-04-06T12:04:51.075Z,23.02
2019-04-06T12:07:38.424Z,22.98
2019-04-06T12:13:22.527Z,23.20
2019-04-06T12:16:09.932Z,23.11
2019-04-06T12:18:57.145Z,23.10
2019-04-06T12:21:44.232Z,23.05
2019-04-06T12:24:31.289Z,23.12
2019-04-06T12:27:18.504Z,23.17
2019-04-06T12:30:05.642Z,23.16
2019-04-06T12:32:52.685Z,23.19
2019-04-06T12:35:39.779Z,23.16
2019-04-06T12:38:26.869Z,23.16
2019-04-06T12:41:13.986Z,23.14
2019-04-06T12:44:01.052Z,23.21
2019-04-06T12:46:48.559Z,23.27
2019-04-06T12:49:35.632Z,23.27
2019-04-06T12:52:22.722Z,23.20
2019-04-06T12:55:09.780Z,23.30
2019-04-06T12:57:56.842Z,23.41
2019-04-06T13:00:52.109Z,23.37
2019-04-06T13:03:32.619Z,23.40
2019-04-06T13:06:19.659Z,23.35
2019-04-06T13:09:26.227Z,23.35
2019-04-06T13:12:09.163Z,23.36
2019-04-06T13:14:56.206Z,23.37
2019-04-06T13:17:43.270Z,23.36
2019-04-06T13:20:30.324Z,23.32
2019-04-06T13:23:17.373Z,23.41
2019-04-06T13:26:04.411Z,23.40
2019-04-06T13:28:51.529Z,23.44
2019-04-06T13:31:38.519Z,23.42
2019-04-06T13:34:25.574Z,23.44
2019-04-06T13:37:00.941Z,23.46
2019-04-06T13:39:47.948Z,23.47
2019-04-06T13:42:35.027Z,23.47
2019-04-06T13:45:22.465Z,23.45
2019-04-06T13:48:09.591Z,23.46
2019-04-06T13:50:57.034Z,23.50
2019-04-06T13:53:44.025Z,23.48
2019-04-06T13:56:31.081Z,23.50
2019-04-06T13:59:18.149Z,23.51
2019-04-06T14:01:52.877Z,23.49
2019-04-06T14:04:40.159Z,23.52
2019-04-06T14:07:27.179Z,23.52
2019-04-06T14:10:14.357Z,23.54
2019-04-06T14:13:01.316Z,23.55
2019-04-06T14:15:48.378Z,23.54
2019-04-06T14:18:35.436Z,23.56
2019-04-06T14:21:22.614Z,23.57
2019-04-06T14:24:09.614Z,23.58
2019-04-06T14:27:15.763Z,23.72
2019-04-06T14:30:02.840Z,23.67
2019-04-06T14:32:49.878Z,23.56
2019-04-06T14:35:56.009Z,23.54
2019-04-06T14:38:43.141Z,23.55
2019-04-06T14:41:30.169Z,23.58
2019-04-06T14:44:17.562Z,23.71
2019-04-06T14:47:06.212Z,23.64
2019-04-06T14:49:53.308Z,23.62
2019-04-06T14:52:33.195Z,23.68
2019-04-06T14:55:20.244Z,23.63
2019-04-06T14:58:07.360Z,23.60
2019-04-06T15:00:54.404Z,23.63
2019-04-06T15:03:41.485Z,23.61
2019-04-06T15:06:28.600Z,23.65
2019-04-06T15:09:06.993Z,23.66
2019-04-06T15:11:44.036Z,23.61
2019-04-06T15:14:31.456Z,23.63
2019-04-06T15:17:19.021Z,23.76
2019-04-06T15:20:06.617Z,23.70
2019-04-06T15:22:53.759Z,23.74
2019-04-06T15:25:41.181Z,23.75
2019-04-06T15:28:28.785Z,23.74
2019-04-06T15:31:15.973Z,23.67
2019-04-06T15:34:03.046Z,23.72
2019-04-06T15:36:50.192Z,23.75
2019-04-06T15:39:37.503Z,23.74
2019-04-06T15:42:24.561Z,23.69
2019-04-06T15:45:11.911Z,23.74
2019-04-06T15:47:59.594Z,23.70
2019-04-06T15:50:46.988Z,23.71
2019-04-06T15:53:34.226Z,23.74
2019-04-06T15:56:21.614Z,23.76
2019-04-06T15:59:08.750Z,23.76
2019-04-06T16:01:46.449Z,23.76
2019-04-06T16:04:33.618Z,23.82
2019-04-06T16:07:30.145Z,23.82
2019-04-06T16:10:09.888Z,23.79
2019-04-06T16:12:56.919Z,23.76
2019-04-06T16:15:43.965Z,23.77
2019-04-06T16:18:31.059Z,23.82
2019-04-06T16:21:18.084Z,23.85
2019-04-06T16:24:05.842Z,23.76
2019-04-06T16:26:52.911Z,23.73
2019-04-06T16:29:32.954Z,23.66
2019-04-06T16:32:31.838Z,23.63
2019-04-06T16:35:10.505Z,23.63
2019-04-06T16:37:57.634Z,23.69
2019-04-06T16:40:45.277Z,23.64
2019-04-06T16:43:32.597Z,23.61
2019-04-06T16:46:19.672Z,23.59
2019-04-06T16:49:06.738Z,23.57
2019-04-06T16:51:54.187Z,23.54
2019-04-06T16:54:41.254Z,23.53
2019-04-06T16:57:28.330Z,23.52
2019-04-06T17:00:18.309Z,22.92
2019-04-06T17:02:59.186Z,23.51
2019-04-06T17:05:33.069Z,23.51
2019-04-06T17:10:55.709Z,23.47
2019-04-06T17:13:43.020Z,23.44
2019-04-06T17:16:30.062Z,23.46
2019-04-06T17:19:06.659Z,23.46
2019-04-06T17:21:53.932Z,23.46
2019-04-06T17:24:41.043Z,23.45
2019-04-06T17:27:16.134Z,23.45
2019-04-06T17:30:04.579Z,23.43
2019-04-06T17:32:51.600Z,23.41
2019-04-06T17:35:39.114Z,23.43
2019-04-06T17:38:26.253Z,23.38
2019-04-06T17:41:13.582Z,23.42
2019-04-06T17:44:01.057Z,23.40
2019-04-06T17:46:48.149Z,23.38
2019-04-06T17:49:35.209Z,23.36
2019-04-06T17:52:22.518Z,23.34
2019-04-06T17:55:06.700Z,23.32
2019-04-06T17:57:54.055Z,23.31
2019-04-06T18:00:41.642Z,23.30
2019-04-06T18:03:28.780Z,23.29
2019-04-06T18:06:16.338Z,23.29
2019-04-06T18:09:06.398Z,23.27
2019-04-06T18:11:54.136Z,23.25
2019-04-06T18:14:22.621Z,23.25
2019-04-06T18:16:50.846Z,23.24
2019-04-06T18:19:19.312Z,23.23
2019-04-06T18:24:42.301Z,23.23
2019-04-06T18:27:10.767Z,23.23
2019-04-06T18:29:40.264Z,23.22
2019-04-06T18:32:57.076Z,23.22
2019-04-06T18:35:35.109Z,23.22
2019-04-06T18:40:43.023Z,23.21
2019-04-06T18:43:30.427Z,23.20
2019-04-06T18:45:58.816Z,23.20
2019-04-06T18:48:28.545Z,23.18
2019-04-06T18:50:56.916Z,23.17
2019-04-06T18:53:25.088Z,23.17
2019-04-06T18:55:53.750Z,23.18
2019-04-06T18:58:23.260Z,23.19
2019-04-06T19:00:51.399Z,23.19
2019-04-06T19:03:19.780Z,23.18
2019-04-06T19:06:07.124Z,23.18
2019-04-06T19:08:35.386Z,23.17
2019-04-06T19:11:03.600Z,23.15
2019-04-06T19:13:31.833Z,23.16
2019-04-06T19:16:18.964Z,23.14
2019-04-06T19:18:47.684Z,23.12
2019-04-06T19:21:17.544Z,23.14
2019-04-06T19:26:21.492Z,23.11
2019-04-06T19:28:49.670Z,23.13
2019-04-06T19:31:17.904Z,23.10
2019-04-06T19:33:46.335Z,23.11
2019-04-06T19:36:15.880Z,23.13
2019-04-06T19:38:44.035Z,23.11
2019-04-06T19:41:12.433Z,23.09
2019-04-06T19:43:42.596Z,23.10
2019-04-06T19:46:11.770Z,23.13
2019-04-06T19:48:40.755Z,23.10
2019-04-06T19:51:09.683Z,23.08
2019-04-06T19:53:37.961Z,23.10
2019-04-06T19:56:07.734Z,23.10
2019-04-06T19:58:35.885Z,23.08
2019-04-06T20:01:04.291Z,23.06
2019-04-06T20:03:37.240Z,23.10
2019-04-06T20:06:03.946Z,23.12
2019-04-06T20:08:33.374Z,23.12
2019-04-06T20:11:01.992Z,23.10
2019-04-06T20:13:31.496Z,23.09
2019-04-06T20:15:59.840Z,23.10
2019-04-06T20:18:29.536Z,23.10
2019-04-06T20:20:57.750Z,23.10
2019-04-06T20:23:25.937Z,23.10
2019-04-06T20:25:55.780Z,23.10
2019-04-06T20:28:24.346Z,23.10
2019-04-06T20:30:53.786Z,23.11
2019-04-06T20:33:22.001Z,23.07
2019-04-06T20:35:50.275Z,23.07
2019-04-06T20:38:18.524Z,23.08
2019-04-06T20:40:47.105Z,23.07
2019-04-06T20:43:16.614Z,23.06
2019-04-06T20:45:44.771Z,23.07
2019-04-06T20:48:13.278Z,23.08
2019-04-06T20:50:41.477Z,23.06
2019-04-06T20:53:09.954Z,23.06
2019-04-06T20:55:39.785Z,23.05
2019-04-06T20:58:09.556Z,23.08
2019-04-06T21:00:37.934Z,23.08
2019-04-06T21:03:07.550Z,23.07
2019-04-06T21:05:35.816Z,22.53
2019-04-06T21:08:04.507Z,23.05
2019-04-06T21:10:34.096Z,23.07
2019-04-06T21:13:02.361Z,23.07
2019-04-06T21:15:30.567Z,23.04
2019-04-06T21:18:17.850Z,23.06
2019-04-06T21:20:46.378Z,23.03
2019-04-06T21:23:15.843Z,23.03
2019-04-06T21:25:44.028Z,23.03
2019-04-06T21:28:12.266Z,23.03
2019-04-06T21:30:59.679Z,23.03
2019-04-06T21:36:39.461Z,23.02
2019-04-06T21:39:07.718Z,23.03
2019-04-06T21:41:35.900Z,23.03
2019-04-06T21:44:04.891Z,23.02
2019-04-06T21:46:52.851Z,23.00
2019-04-06T21:49:21.665Z,23.01
2019-04-06T21:54:45.491Z,23.01
2019-04-06T21:57:15.280Z,23.01
2019-04-06T21:59:44.913Z,23.03
2019-04-06T22:02:14.748Z,23.02
2019-04-06T22:04:44.163Z,22.69
2019-04-06T22:07:12.932Z,23.00
2019-04-06T22:09:42.404Z,23.00
2019-04-06T22:12:10.595Z,22.99
2019-04-06T22:14:38.708Z,23.00
2019-04-06T22:19:42.502Z,23.02
2019-04-06T22:22:12.291Z,23.00
2019-04-06T22:24:40.737Z,22.99
2019-04-06T22:27:10.865Z,22.99
2019-04-06T22:29:40.087Z,22.98
2019-04-06T22:32:27.364Z,22.98
2019-04-06T22:34:55.686Z,22.98
2019-04-06T22:37:24.531Z,22.98
2019-04-06T22:39:52.735Z,22.96
2019-04-06T22:42:20.960Z,22.97
2019-04-06T22:44:49.198Z,22.94
2019-04-06T22:50:04.809Z,22.95
2019-04-06T22:52:33.041Z,22.94
2019-04-06T22:55:01.781Z,22.93
2019-04-06T22:57:31.762Z,22.92
2019-04-06T23:00:00.974Z,22.93
2019-04-06T23:05:13.466Z,22.94
2019-04-06T23:07:42.957Z,22.93
2019-04-06T23:10:11.076Z,22.93
2019-04-06T23:12:39.418Z,22.92
2019-04-06T23:17:43.113Z,22.92
2019-04-06T23:20:12.401Z,22.91
2019-04-06T23:22:41.086Z,22.91
2019-04-06T23:25:10.634Z,22.91
2019-04-06T23:27:40.481Z,22.91
2019-04-06T23:30:10.537Z,22.88
2019-04-06T23:32:40.023Z,22.89
2019-04-06T23:35:08.257Z,22.89
2019-04-06T23:37:36.502Z,22.89
2019-04-06T23:40:05.397Z,22.89
2019-04-06T23:42:35.381Z,22.87
2019-04-06T23:45:04.881Z,22.85
2019-04-06T23:47:33.071Z,22.85
2019-04-06T23:50:01.983Z,22.86
2019-04-06T23:52:31.112Z,22.87
2019-04-06T23:54:59.250Z,22.85
2019-04-06T23:57:27.410Z,22.84
2019-04-06T23:59:55.564Z,22.85
